Main page
METAR-TAF:

METAR-TAF

Airports :

Dundee Airport

Dundee, Scotland

latitude: 56-27N, longitude: 003-01W, elevation: 4 m

Current weather observation

The report was made 3 hours and 59 minutes ago, at 20:20 UTC
Wind 24 kt from the West/Southwest
Temperature 11°C
Humidity 87%
Pressure 989 hPa
Visibility 10 km or more
Scattered clouds at a height of 1800 ft

METAR: EGPN 052020Z 25024KT 9999 SCT018 11/09 Q0989

Time: 00:19 (00:19 UTC)

Forecast

The report was made 7 hours and 22 minutes ago, at 16:57 UTC
Forecast valid from 05 at 18 UTC to 05 at 21 UTC
Wind 18 kt from the Southwest
Visibility 10 km or more
Few clouds at a height of 1200 ft
Scattered clouds at a height of 2000 ft
Temporary
from 05 at 18 UTC to 05 at 21 UTC
Wind 22 kt from the West/Southwest with gusts up to 35 kt
Probability 40% :
Temporary
from 05 at 18 UTC to 05 at 21 UTC
Visibility: 7000 m
Broken clouds at a height of 1200 ft
rain

TAF: EGPN 051657Z 0518/0521 23018KT 9999 FEW012 SCT020 TEMPO 0518/0521 25022G35KT PROB40 TEMPO 0518/0521 7000 RA BKN012

Weather observations and forecasts of more than 4000 airports (METAR and TAF reports).

The available stations are represented by yellow and red dots on the map.

Hover mouse over dot to see the name of the station.

Then click to see weather observations and forecasts.

To change the map : click on the green buttons with a black cross to zoom in, on the green button with a dash to zoom out, or on the green arrows for adjacent maps.


METAR-TAF: